Data for 04/08/2018

Time Sea-Level Adjusted Pressure Absolute Pressure Temperature Relative Humidity Dew Point   
(mb) (inHg) (mb) (inHg) (C) (F) (%) (C) (F)
00:05 1008 29.77 837 24.72 0.7 33.2 73 -3.6 25.5
00:10 1008 29.77 837 24.72 0.4 32.7 71 -4.3 24.3
00:15 1008 29.77 837 24.72 0.5 32.8 70 -4.3 24.2
00:20 1008 29.77 837 24.72 0.7 33.2 69 -4.4 24.1
00:25 1008 29.77 837 24.72 0.9 33.6 71 -3.8 25.2
00:30 1008 29.77 837 24.72 0.7 33.3 72 -3.8 25.2
00:35 1008 29.77 837 24.72 0.5 33 73 -3.7 25.3
00:40 1008 29.77 837 24.72 0.4 32.7 76 -3.4 25.8
00:45 1008 29.77 837 24.72 0.3 32.5 76 -3.5 25.7
00:50 1008 29.77 837 24.72 0.4 32.7 75 -3.5 25.6
00:55 1008 29.77 837 24.72 0.4 32.8 74 -3.8 25.2
01:00 1008 29.77 837 24.72 0.5 32.9 73 -3.8 25.2
01:05 1008 29.77 837 24.72 0.5 32.9 72 -4 24.8
01:10 1008 29.77 837 24.72 0.4 32.7 73 -3.8 25.1
01:15 1008 29.77 837 24.72 0.3 32.6 74 -3.8 25.1
01:20 1008 29.77 837 24.72 0.2 32.4 73 -4 24.7
01:25 1008 29.77 837 24.72 -0.1 31.8 74 -4.1 24.6
01:30 1008 29.77 837 24.72 -0.2 31.7 74 -4.2 24.5
01:35 1008 29.77 837 24.72 -0.2 31.7 74 -4.4 24.1
01:40 1008 29.77 837 24.72 -0.2 31.7 73 -4.5 24
01:45 1008 29.77 837 24.72 -0.1 31.7 74 -4.3 24.3
01:50 1008 29.77 837 24.72 -0.3 31.4 74 -4.4 24.2
01:55 1008 29.77 837 24.72 -0.4 31.2 70 -5.2 22.7
02:00 1008 29.77 837 24.72 -0.4 31.3 73 -4.6 23.8
02:05 1008 29.77 837 24.72 -1 30.2 79 -4.2 24.5
02:10 1008 29.77 837 24.72 -1.8 28.7 83 -4.4 24
02:15 1008 29.77 837 24.72 -2.3 27.9 83 -4.7 23.5
02:20 1008 29.77 837 24.72 -2.1 28.2 83 -4.7 23.6
02:25 1008 29.77 837 24.72 -2.1 28.2 84 -4.5 23.9
02:30 1008 29.77 837 24.72 -1.8 28.7 82 -4.5 23.9
02:35 1008 29.77 837 24.72 -1.8 28.8 82 -4.5 24
02:40 1008 29.77 837 24.72 -1.8 28.8 82 -4.4 24.1
02:45 1008 29.77 837 24.72 -1.9 28.6 83 -4.4 24.1
02:50 1008 29.77 837 24.72 -2.1 28.3 83 -4.5 23.9
02:55 1008 29.77 837 24.72 -1.8 28.8 81 -4.6 23.8
03:00 1008 29.77 837 24.72 -1.6 29.1 80 -4.6 23.8
03:05 1008 29.77 838 24.75 -1.5 29.4 80 -4.5 23.9
03:10 1008 29.77 837 24.72 -1.5 29.2 81 -4.4 24.1
03:15 1008 29.77 837 24.72 -1.2 29.9 76 -4.9 23.2
03:20 1008 29.77 837 24.72 -1.3 29.6 80 -4.4 24.1
03:25 1008 29.77 837 24.72 -1.2 29.8 76 -5 23.1
03:30 1008 29.77 837 24.72 -0.8 30.6 76 -4.5 23.9
03:35 1008 29.77 837 24.72 -1.1 30 77 -4.7 23.6
03:40 1008 29.77 837 24.72 -1.1 30 77 -4.7 23.6
03:45 1008 29.77 837 24.72 -1.2 29.8 78 -4.6 23.7
03:50 1008 29.77 837 24.72 -1.2 29.8 77 -4.8 23.4
03:55 1008 29.77 837 24.72 -1.4 29.5 79 -4.6 23.7
04:00 1008 29.77 837 24.72 -1.8 28.8 81 -4.6 23.7
04:05 1008 29.77 837 24.72 -2 28.4 82 -4.7 23.5
04:10 1008 29.77 837 24.72 -2 28.4 82 -4.7 23.6
04:15 1008 29.77 837 24.72 -2.3 27.9 82 -4.9 23.2
04:20 1008 29.77 837 24.72 -1.9 28.5 81 -4.8 23.3
04:25 1008 29.77 837 24.72 -2 28.5 82 -4.7 23.5
04:30 1008 29.77 838 24.75 -2 28.4 82 -4.6 23.7
04:35 1008 29.77 838 24.75 -2 28.3 82 -4.7 23.5
04:40 1008 29.77 838 24.75 -2.1 28.2 83 -4.7 23.6
04:45 1008 29.77 838 24.75 -1.8 28.7 79 -5 23
04:50 1008 29.77 838 24.75 -1.4 29.5 79 -4.6 23.7
04:55 1009 29.8 838 24.75 -1.7 29 80 -4.6 23.7
05:00 1009 29.8 838 24.75 -1.9 28.6 83 -4.4 24.1
05:05 1009 29.8 838 24.75 -1.7 28.9 81 -4.6 23.7
05:10 1009 29.8 838 24.75 -1.7 29 81 -4.6 23.8
05:15 1009 29.8 838 24.75 -1.6 29.1 81 -4.5 23.9
05:20 1009 29.8 838 24.75 -1.2 29.9 79 -4.4 24.1
05:25 1009 29.8 838 24.75 -1 30.2 77 -4.5 23.9
05:30 1009 29.8 838 24.75 -1.1 30.1 79 -4.3 24.3
05:35 1009 29.8 838 24.75 -1.4 29.5 81 -4.3 24.3
05:40 1009 29.8 838 24.75 -1.7 29 81 -4.5 23.9
05:45 1009 29.8 838 24.75 -1.4 29.4 76 -5.1 22.8
05:50 1009 29.8 838 24.75 -1 30.3 76 -4.6 23.6
05:55 1009 29.8 838 24.75 -0.8 30.5 76 -4.5 23.8
06:00 1009 29.8 838 24.75 -0.8 30.6 77 -4.4 24.1
06:05 1009 29.8 838 24.75 -0.8 30.5 80 -3.9 25
06:10 1009 29.8 838 24.75 -0.9 30.5 80 -3.9 25.1
06:15 1009 29.8 838 24.75 -0.9 30.4 80 -3.9 24.9
06:20 1009 29.8 838 24.75 -0.8 30.5 80 -3.8 25.2
06:25 1009 29.8 838 24.75 -0.8 30.6 81 -3.7 25.4
06:30 1009 29.8 838 24.75 -0.8 30.5 81 -3.7 25.4
06:35 1009 29.8 838 24.75 -0.7 30.8 81 -3.4 25.8
06:40 1009 29.8 838 24.75 -0.5 31.2 81 -3.3 26.1
06:45 1009 29.8 838 24.75 -0.2 31.7 78 -3.5 25.6
06:50 1009 29.8 838 24.75 0.1 32.2 78 -3.2 26.2
06:55 1009 29.8 838 24.75 0.1 32.2 77 -3.4 25.9
07:00 1009 29.8 838 24.75 0.4 32.6 76 -3.3 26
07:05 1009 29.8 838 24.75 0.5 32.9 75 -3.4 25.8
07:10 1009 29.8 838 24.75 0.6 33.1 76 -3.2 26.2
07:15 1009 29.8 838 24.75 0.6 33.1 76 -3.1 26.4
07:20 1009 29.8 838 24.75 0.6 33.1 75 -3.3 26.1
07:25 1009 29.8 838 24.75 0.9 33.6 74 -3.3 26.1
07:30 1009 29.8 838 24.75 1 33.8 74 -3.2 26.3
07:35 1009 29.8 839 24.78 1.4 34.5 72 -3.1 26.5
07:40 1009 29.8 839 24.78 1.5 34.8 71 -3.2 26.2
07:45 1010 29.83 839 24.78 2.1 35.7 67 -3.4 25.8
07:50 1010 29.83 839 24.78 2.6 36.7 68 -2.7 27.2
07:55 1010 29.83 839 24.78 2.4 36.2 71 -2.4 27.7
08:00 1010 29.83 839 24.78 1.9 35.4 72 -2.6 27.3
08:05 1010 29.83 839 24.78 1.7 35 73 -2.6 27.4
08:10 1010 29.83 839 24.78 1.8 35.2 70 -3.1 26.4
08:15 1010 29.83 839 24.78 2.1 35.8 68 -3.1 26.3
08:20 1010 29.83 839 24.78 2.1 35.8 70 -2.7 27.1
08:25 1010 29.83 839 24.78 2.4 36.4 69 -2.7 27.2
08:30 1010 29.83 839 24.78 2.5 36.5 70 -2.3 27.8
08:35 1010 29.83 839 24.78 2.5 36.5 70 -2.4 27.7
08:40 1010 29.83 839 24.78 2.7 36.8 68 -2.6 27.3
08:45 1010 29.83 839 24.78 3 37.4 70 -2 28.4
08:50 1010 29.83 839 24.78 3.1 37.6 72 -1.4 29.5
08:55 1010 29.83 839 24.78 3.3 38 72 -1.2 29.9
09:00 1010 29.83 839 24.78 3.4 38.1 71 -1.5 29.3
09:05 1010 29.83 839 24.78 3.8 38.8 69 -1.5 29.4
09:10 1010 29.83 839 24.78 3.9 39.1 67 -1.6 29.2
09:15 1010 29.83 839 24.78 3.9 39 68 -1.5 29.3
09:20 1010 29.83 839 24.78 3.9 39 67 -1.7 29
09:25 1010 29.83 839 24.78 3.9 39 65 -2.1 28.1
09:30 1010 29.83 839 24.78 4.3 39.7 67 -1.3 29.6
09:35 1010 29.83 839 24.78 4.5 40.1 65 -1.6 29.1
09:40 1010 29.83 839 24.78 4.7 40.5 63 -1.7 28.9
09:45 1010 29.83 840 24.81 5.2 41.4 64 -1 30.2
09:50 1010 29.83 840 24.81 5.3 41.6 62 -1.4 29.6
09:55 1010 29.83 839 24.78 5.3 41.6 63 -1.2 29.9
10:00 1010 29.83 840 24.81 5.2 41.4 62 -1.3 29.6
10:05 1010 29.83 840 24.81 5.3 41.5 62 -1.5 29.3
10:10 1010 29.83 840 24.81 5.4 41.8 59 -1.8 28.7
10:15 1010 29.83 840 24.81 5.3 41.5 62 -1.4 29.4
10:20 1011 29.85 840 24.81 5.7 42.3 60 -1.5 29.2
10:25 1011 29.85 840 24.81 5 40.9 61 -1.9 28.6
10:30 1011 29.85 840 24.81 4.6 40.3 62 -1.9 28.5
10:35 1011 29.85 840 24.81 4.1 39.4 62 -2.4 27.6
10:40 1011 29.85 840 24.81 4.4 39.9 61 -2.4 27.7
10:45 1011 29.85 840 24.81 5.2 41.3 58 -2.3 27.8
10:50 1011 29.85 840 24.81 5.5 42 57 -2.3 27.9
10:55 1011 29.85 840 24.81 5.9 42.5 54 -2.7 27.2
11:00 1011 29.85 840 24.81 5.7 42.3 57 -2.2 28
11:05 1011 29.85 840 24.81 6 42.8 54 -2.5 27.5
11:10 1011 29.85 840 24.81 6.8 44.3 52 -2.5 27.6
11:15 1011 29.85 840 24.81 8.5 47.3 43 -3.2 26.2
11:20 1011 29.85 840 24.81 8.5 47.2 47 -2.2 28
11:25 1011 29.85 840 24.81 7.1 44.7 54 -1.6 29.1
11:30 1011 29.85 840 24.81 6.8 44.2 52 -2.4 27.6
11:35 1011 29.85 840 24.81 7.3 45.1 51 -2.1 28.1
11:40 1011 29.85 840 24.81 7.6 45.7 49 -2.3 27.8
11:45 1011 29.85 840 24.81 7.4 45.3 54 -1.4 29.5
11:50 1011 29.85 840 24.81 7.1 44.8 56 -1.2 29.9
11:55 1011 29.85 840 24.81 7.6 45.7 53 -1.3 29.7
12:00 1011 29.85 840 24.81 7.2 44.9 52 -1.9 28.5
12:05 1011 29.85 840 24.81 7.7 45.8 52 -1.5 29.3
12:10 1011 29.85 840 24.81 8.2 46.7 51 -1.2 29.8
12:15 1011 29.85 840 24.81 8.4 47.2 48 -2 28.3
12:20 1011 29.85 840 24.81 7.8 46 46 -3.1 26.4
12:25 1011 29.85 840 24.81 7.2 44.9 48 -3.2 26.2
12:30 1011 29.85 840 24.81 7 44.7 47 -3.4 25.9
12:35 1011 29.85 840 24.81 7.1 44.8 45 -3.9 25
12:40 1011 29.85 840 24.81 7.2 44.9 47 -3.5 25.7
12:45 1011 29.85 840 24.81 7.1 44.8 48 -3.1 26.4
12:50 1011 29.85 840 24.81 6.3 43.4 51 -3 26.5
12:55 1011 29.85 840 24.81 6.4 43.6 49 -3.4 25.9
13:00 1011 29.85 840 24.81 6.5 43.6 50 -3.1 26.5
13:05 1011 29.85 840 24.81 6.4 43.5 51 -3.1 26.4
13:10 1011 29.85 840 24.81 6.9 44.4 49 -3 26.6
13:15 1011 29.85 840 24.81 7 44.5 49 -2.9 26.8
13:20 1011 29.85 840 24.81 6.8 44.3 52 -2.4 27.7
13:25 1011 29.85 841 24.83 6.8 44.3 52 -2.3 27.8
13:30 1011 29.85 841 24.83 6.5 43.8 54 -2.2 28
13:35 1011 29.85 841 24.83 6.5 43.6 54 -2.1 28.2
13:40 1011 29.85 841 24.83 6.7 44 55 -1.8 28.7
13:45 1012 29.88 841 24.83 6.8 44.3 54 -1.7 28.9
13:50 1012 29.88 841 24.83 6.6 43.8 54 -2.2 28.1
13:55 1012 29.88 841 24.83 6.7 44 52 -2.6 27.4
14:00 1012 29.88 841 24.83 7.1 44.8 52 -2.2 28
14:05 1012 29.88 841 24.83 7.3 45.1 51 -2.2 28.1
14:10 1012 29.88 841 24.83 7.1 44.8 47 -3.4 25.9
14:15 1012 29.88 841 24.83 7 44.6 46 -3.9 24.9
14:20 1012 29.88 841 24.83 6.3 43.3 53 -2.6 27.3
14:25 1012 29.88 841 24.83 5.5 41.9 57 -2.3 27.9
14:30 1012 29.88 841 24.83 5 40.9 61 -1.9 28.6
14:35 1012 29.88 841 24.83 4.6 40.3 63 -1.7 28.9
14:40 1012 29.88 841 24.83 4.6 40.2 63 -1.9 28.6
14:45 1012 29.88 842 24.86 4.8 40.6 62 -1.9 28.6
14:50 1013 29.91 842 24.86 5.2 41.3 60 -1.9 28.5
14:55 1013 29.91 842 24.86 5.5 42 55 -2.8 26.9
15:00 1013 29.91 842 24.86 6 42.9 54 -2.7 27.2
15:05 1013 29.91 842 24.86 6.3 43.3 53 -2.6 27.3
15:10 1013 29.91 842 24.86 6.4 43.5 55 -2 28.4
15:15 1013 29.91 842 24.86 6.3 43.4 59 -1.2 29.8
15:20 1013 29.91 842 24.86 6.3 43.3 59 -1.2 29.9
15:25 1013 29.91 842 24.86 6.3 43.3 59 -1 30.1
15:30 1013 29.91 842 24.86 6.2 43.1 60 -0.9 30.4
15:35 1013 29.91 842 24.86 6.2 43.2 59 -1.3 29.7
15:40 1013 29.91 842 24.86 6 42.9 58 -1.5 29.3
15:45 1013 29.91 842 24.86 5.9 42.7 59 -1.5 29.3
15:50 1013 29.91 842 24.86 6 42.7 59 -1.3 29.6
15:55 1013 29.91 842 24.86 6.3 43.3 58 -1.4 29.4
16:00 1013 29.91 842 24.86 6.5 43.7 57 -1.4 29.5
16:05 1013 29.91 842 24.86 6.6 43.8 56 -1.5 29.3
16:10 1013 29.91 842 24.86 6.5 43.7 56 -1.7 29
16:15 1013 29.91 842 24.86 6.5 43.7 56 -1.6 29
16:20 1013 29.91 842 24.86 6.5 43.7 56 -1.6 29.2
16:25 1013 29.91 843 24.89 6.5 43.6 57 -1.4 29.6
16:30 1014 29.94 843 24.89 6.1 43 61 -0.8 30.5
16:35 1014 29.94 843 24.89 5.4 41.8 63 -1 30.2
16:40 1014 29.94 843 24.89 5.3 41.5 64 -0.9 30.4
16:45 1014 29.94 843 24.89 5.3 41.6 64 -0.9 30.4
16:50 1014 29.94 843 24.89 4.9 40.7 69 -0.3 31.5
16:55 1014 29.94 843 24.89 4.8 40.6 68 -0.7 30.8
17:00 1014 29.94 844 24.92 4.7 40.5 68 -0.7 30.8
17:05 1015 29.97 844 24.92 4.6 40.3 67 -0.9 30.4
17:10 1015 29.97 844 24.92 4 39.2 71 -0.8 30.5
17:15 1015 29.97 844 24.92 3.6 38.4 72 -0.9 30.3
17:20 1015 29.97 844 24.92 3.5 38.3 75 -0.6 31
17:25 1015 29.97 844 24.92 3.6 38.5 76 -0.3 31.5
17:30 1015 29.97 844 24.92 3.7 38.7 77 0 32
17:35 1015 29.97 844 24.92 3.7 38.7 76 -0 31.9
17:40 1015 29.97 844 24.92 3.6 38.5 78 0.1 32.1
17:45 1015 29.97 844 24.92 3.7 38.6 76 -0.1 31.8
17:50 1015 29.97 844 24.92 3.8 38.9 74 -0.4 31.3
17:55 1015 29.97 844 24.92 3.9 39.1 73 -0.4 31.3
18:00 1015 29.97 844 24.92 3.9 39.1 73 -0.5 31.2
18:05 1015 29.97 844 24.92 3.8 38.9 73 -0.5 31.1
18:10 1015 29.97 844 24.92 3.8 38.9 73 -0.7 30.8
18:15 1015 29.97 844 24.92 3.7 38.7 73 -0.6 30.9
18:20 1015 29.97 844 24.92 3.6 38.4 76 -0.2 31.6
18:25 1015 29.97 845 24.95 3.2 37.7 78 -0.4 31.4
18:30 1016 30 845 24.95 3.1 37.5 79 -0.2 31.7
18:35 1016 30 845 24.95 2.9 37.1 80 -0.3 31.5
18:40 1016 30 845 24.95 2.5 36.6 81 -0.4 31.3
18:45 1015 29.97 845 24.95 2.5 36.5 82 -0.3 31.5
18:50 1016 30 845 24.95 2.6 36.6 80 -0.5 31.1
18:55 1016 30 845 24.95 2.7 36.8 78 -0.8 30.6
19:00 1016 30 845 24.95 2.8 37.1 77 -0.8 30.5
19:05 1016 30 845 24.95 3.1 37.5 73 -1.2 29.8
19:10 1016 30 845 24.95 3.4 38.1 71 -1.4 29.5
19:15 1016 30 845 24.95 3.6 38.5 71 -1.2 29.8
19:20 1016 30 845 24.95 3.5 38.3 72 -1 30.2
19:25 1016 30 845 24.95 3.3 38 73 -1 30.2
19:30 1016 30 845 24.95 3.2 37.8 74 -1 30.1
19:35 1016 30 845 24.95 3.1 37.6 75 -1 30.3
19:40 1016 30 846 24.98 3 37.3 75 -1 30.2
19:45 1017 30.03 846 24.98 2.9 37.2 76 -0.9 30.3
19:50 1017 30.03 846 24.98 2.7 36.9 77 -0.9 30.4
19:55 1017 30.03 846 24.98 2.7 36.9 77 -0.9 30.5
20:00 1017 30.03 846 24.98 2.7 36.8 78 -0.7 30.7
20:05 1017 30.03 846 24.98 2.7 36.8 78 -0.8 30.6
20:10 1017 30.03 846 24.98 2.6 36.7 78 -0.8 30.5
20:15 1017 30.03 846 24.98 2.6 36.7 77 -1.1 30.1
20:20 1017 30.03 846 24.98 2.8 37.1 75 -1.1 30
20:25 1017 30.03 846 24.98 2.8 37.1 78 -0.6 30.9
20:30 1017 30.03 847 25.01 2.5 36.6 80 -0.6 31
20:35 1018 30.06 847 25.01 2.4 36.4 81 -0.5 31.1
20:40 1018 30.06 847 25.01 2.5 36.6 76 -1.2 29.8
20:45 1018 30.06 847 25.01 2.9 37.3 76 -0.9 30.4
20:50 1018 30.06 847 25.01 2.9 37.2 78 -0.6 30.9
20:55 1018 30.06 847 25.01 2.8 37.1 77 -0.7 30.7
21:00 1018 30.06 847 25.01 2.8 37.1 78 -0.7 30.8
21:05 1018 30.06 848 25.04 2.9 37.2 78 -0.6 30.9
21:10 1019 30.09 848 25.04 2.8 37 78 -0.6 30.9
21:15 1019 30.09 848 25.04 2.7 36.8 78 -0.7 30.7
21:20 1019 30.09 848 25.04 2.7 36.8 78 -0.8 30.6
21:25 1019 30.09 848 25.04 2.6 36.6 79 -0.6 30.9
21:30 1019 30.09 848 25.04 2.4 36.3 81 -0.6 30.9
21:35 1019 30.09 848 25.04 2.2 36 81 -0.7 30.8
21:40 1019 30.09 848 25.04 2.1 35.7 82 -0.7 30.8
21:45 1019 30.09 848 25.04 2 35.6 81 -1 30.2
21:50 1019 30.09 848 25.04 2.2 35.9 81 -0.8 30.5
21:55 1019 30.09 848 25.04 2.2 35.9 83 -0.4 31.3
22:00 1019 30.09 848 25.04 2 35.6 83 -0.5 31.1
22:05 1019 30.09 848 25.04 2 35.5 83 -0.6 31
22:10 1019 30.09 848 25.04 2 35.5 83 -0.6 30.9
22:15 1019 30.09 849 25.07 2 35.6 80 -1.2 29.9
22:20 1019 30.09 849 25.07 2.3 36.1 78 -1.1 30
22:25 1019 30.09 849 25.07 2.3 36.2 78 -1.1 30
22:30 1019 30.09 849 25.07 2.5 36.4 77 -1.1 30
22:35 1019 30.09 848 25.04 2.4 36.4 77 -1.1 30
22:40 1019 30.09 849 25.07 2.5 36.4 75 -1.5 29.3
22:45 1019 30.09 849 25.07 2.6 36.8 74 -1.5 29.3
22:50 1019 30.09 849 25.07 2.6 36.7 73 -1.8 28.8
22:55 1019 30.09 849 25.07 2.6 36.6 73 -1.8 28.8
23:00 1020 30.12 849 25.07 2.6 36.7 72 -2 28.4
23:05 1020 30.12 849 25.07 2.7 36.8 71 -2.2 28.1
23:10 1020 30.12 849 25.07 2.6 36.8 70 -2.3 27.9
23:15 1020 30.12 849 25.07 2.7 36.9 69 -2.4 27.7
23:20 1020 30.12 849 25.07 2.7 36.9 68 -2.6 27.4
23:25 1020 30.12 849 25.07 2.8 37 67 -2.7 27.1
23:30 1020 30.12 849 25.07 2.9 37.2 67 -2.6 27.2
23:35 1020 30.12 849 25.07 2.9 37.3 66 -2.8 26.9
23:40 1020 30.12 849 25.07 2.9 37.2 66 -2.9 26.8
23:45 1020 30.12 849 25.07 2.9 37.2 64 -3.3 26.1
23:50 1020 30.12 849 25.07 3 37.5 62 -3.6 25.5
23:55 1020 30.12 849 25.07 3.2 37.7 62 -3.3 26
24:00 1020 30.12 849 25.07 3 37.4 64 -3.1 26.4